St. Cloud, MN
9/6/2014


DISTANCE 13.1 MILES
FINISHERS 267 (112 men, 155 women)
AVERAGE TIME 2:05:11

FIND RESULTS


Bib Name Sex Age City State Overall SexPl DivPl Time
399 Larissa Peyton F 24 Saint Paul MN 10 / 267 1 / 155 1 / 31 1:29:54
304 Kayla Ludivig F 23 Saint Cloud MN 12 / 267 2 / 155 2 / 31 1:30:09
509 Kassie Vaness F 22 Oxford WI 18 / 267 3 / 155 3 / 31 1:33:34
15 Gabriella Auspos F 23 Willmar MN 25 / 267 4 / 155 4 / 31 1:35:48
95 Kim Diskerud F 31 St. Cloud MN 27 / 267 5 / 155 1 / 28 1:36:04
223 Hailey Hollenhorst F 29 Sauk Rapids MN 28 / 267 6 / 155 1 / 29 1:36:22
523 Pam Walter F 53 Cologne MN 30 / 267 7 / 155 1 / 6 1:37:51
491 Laura Taylor F 38 St. Cloud MN 32 / 267 8 / 155 1 / 24 1:39:07
361 Jodi Nelson-Ryan F 46 Sartell MN 33 / 267 9 / 155 1 / 11 1:39:10
334 Jenny Metzler F 20 Saint Cloud WI 35 / 267 10 / 155 5 / 31 1:40:14
278 Staci Lahr F 28 St. Cloud MN 39 / 267 11 / 155 2 / 29 1:42:42
338 Cassandra Miles F 29 Saint Cloud MN 44 / 267 12 / 155 3 / 29 1:44:30
57 Ella Cameron F 21 Collegeville MN 46 / 267 13 / 155 6 / 31 1:44:52
50 Britta Brolin F 21 Centerville MN 48 / 267 14 / 155 7 / 31 1:45:34
64 April Christen F 30 St. Joseph MN 49 / 267 15 / 155 2 / 28 1:45:51
94 Danielle Dinger F 37 Saint Cloud MN 50 / 267 16 / 155 2 / 24 1:45:52
563 Amy Woolsey F 49 Sauk Rapids MN 51 / 267 17 / 155 2 / 11 1:45:55
287 Erin Lemke F 45 Sartell MN 53 / 267 18 / 155 3 / 11 1:46:17
297 Rose Lindberg-Maingi F 42 Albertville MN 57 / 267 19 / 155 1 / 15 1:46:58
440 Breana Ruud F 24 Shakopee MN 61 / 267 20 / 155 8 / 31 1:47:52
152 Susan Froelich F 51 Big Lake MN 62 / 267 21 / 155 2 / 6 1:48:11
4 Sarah Ahlberg F 33 Maple Grove MN 63 / 267 22 / 155 3 / 28 1:48:18
139 Sarah Foley F 43 Cologne MN 64 / 267 23 / 155 2 / 15 1:48:36
55 Hilary Burns F 35 Sartell MN 65 / 267 24 / 155 3 / 24 1:48:58
60 Lynette Catapano F 51 Clearwater MN 68 / 267 25 / 155 3 / 6 1:49:28
226 Rebekah Holmes F 27 Saint Cloud MN 69 / 267 26 / 155 4 / 29 1:49:35
90 Sarah Dewaard F 30 Sartell MN 70 / 267 27 / 155 4 / 28 1:49:37
358 Eda Mutua F 49 Saint Cloud MN 75 / 267 28 / 155 4 / 11 1:49:56
353 Deb Muehring F 48 Saint Joseph MN 76 / 267 29 / 155 5 / 11 1:49:59
284 Olivia Layton F 38 Big Lake MN 77 / 267 30 / 155 4 / 24 1:50:09
479 Dena Storm F 41 Pillager MN 78 / 267 31 / 155 3 / 15 1:50:43
11 Melissa Anderson F 42 Sartell MN 81 / 267 32 / 155 4 / 15 1:50:59
561 Sara Wolf F 35 Sauk Rapids MN 86 / 267 33 / 155 5 / 24 1:52:16
269 Courtney Krsiean F 17 St. Cloud MN 88 / 267 34 / 155 1 / 7 1:53:15
360 Chris Nehring F 45 Kimball MN 89 / 267 35 / 155 6 / 11 1:53:20
530 Kim Wenner F 41 Richmond MN 94 / 267 36 / 155 5 / 15 1:54:13
268 Jolene Krsiean F 48 St. Cloud MN 95 / 267 37 / 155 7 / 11 1:54:16
56 Sara Bye F 32 St. Joseph MN 99 / 267 38 / 155 5 / 28 1:54:58
445 Jennifer Salzer F 32 St. Joseph MN 100 / 267 39 / 155 6 / 28 1:54:58
317 Rebecca May F 20 Minneapolis MN 104 / 267 40 / 155 9 / 31 1:55:59
316 Lindsey May F 22 Grayslake IL 105 / 267 41 / 155 10 / 31 1:56:00
303 Lindsay Love F 35 Sartell MN 108 / 267 42 / 155 6 / 24 1:57:15
362 Amy Nemanich F 19 Red Wing MN 110 / 267 43 / 155 2 / 7 1:57:35
159 Kaylee Garcia F 21 Cold Spring MN 111 / 267 44 / 155 11 / 31 1:57:35
149 Alysse Friedrich F 20 Minneapolis MN 112 / 267 45 / 155 12 / 31 1:57:41
5 Megan Ahlers F 28 Stillwater MN 114 / 267 46 / 155 5 / 29 1:58:02
595 Sommer Mueller F 35 Osseo MN 116 / 267 47 / 155 7 / 24 1:58:10
421 Kristi Reisdorf F 24 St. Joseph MN 117 / 267 48 / 155 13 / 31 1:58:23
481 Maiken Strohm F 31 Wayzata MN 118 / 267 49 / 155 7 / 28 1:58:32
417 Kristie Redmann F 35 Big Lake MN 119 / 267 50 / 155 8 / 24 1:58:39
567 Michele Wunderlich F 43 Oak Grove MN 123 / 267 51 / 155 6 / 15 1:58:56
127 Stephanie Etterman F 49 East Gull Lake MN 124 / 267 52 / 155 8 / 11 1:59:18
109 Erin Droegemueller F 28 St. Cloud MN 126 / 267 53 / 155 6 / 29 1:59:37
429 Samantha Roelike F 24 Sauk Rapids MN 130 / 267 54 / 155 14 / 31 2:00:41
180 Jennifer Halbert F 35 Saint Joseph MN 132 / 267 55 / 155 9 / 24 2:01:04
502 Patricia Thul F 43 Cambridge MN 133 / 267 56 / 155 7 / 15 2:01:11
25 Emma Berg F 39 Minneapolis MN 135 / 267 57 / 155 10 / 24 2:02:43
309 Marissa Mahowald F 37 Sartell MN 137 / 267 58 / 155 11 / 24 2:03:37
330 Stephanie Medalen F 33 Kerkhoven MN 139 / 267 59 / 155 8 / 28 2:04:58
138 Elizabeth Flynn F 35 Sartell MN 140 / 267 60 / 155 12 / 24 2:05:17
365 Melissa Nicolas F 37 Becker MN 141 / 267 61 / 155 13 / 24 2:05:25
291 Jenna Leonhard F 27 Sauk Rapids MN 142 / 267 62 / 155 7 / 29 2:05:29
220 Hannah Hokanson F 25 Annandale MN 144 / 267 63 / 155 8 / 29 2:05:35
402 Jenny Pierce F 27 Dassel MN 145 / 267 64 / 155 9 / 29 2:05:48
274 Isa Kurvers F 22 Eden Prairie MN 146 / 267 65 / 155 15 / 31 2:05:48
493 Brittany Templin F 25 Sauk Rapids MN 148 / 267 66 / 155 10 / 29 2:06:02
200 Meghan Haselbauer F 31 Minneapolis MN 150 / 267 67 / 155 9 / 28 2:07:42
463 Kari Sholing F 43 St. Cloud MN 151 / 267 68 / 155 8 / 15 2:09:11
267 Jolene Kotten F 37 Albany MN 153 / 267 69 / 155 14 / 24 2:09:17
467 Katie Smith F 30 Minneapolis MN 154 / 267 70 / 155 10 / 28 2:09:21
188 Belinda Hanson F 37 Cottage Grove MN 155 / 267 71 / 155 15 / 24 2:09:28
476 Megan Stevermer F 17 Chaska MN 157 / 267 72 / 155 3 / 7 2:09:39
1 Rachael Ackerman F 24 Sauk Rapids MN 158 / 267 73 / 155 16 / 31 2:10:05
558 Patricia Woitalla F 34 Avon MN 159 / 267 74 / 155 11 / 28 2:10:09
562 Liesl Wolf F 24 Saint Cloud MN 160 / 267 75 / 155 17 / 31 2:10:26
528 Tanya Weber F 28 Clear Lake MN 161 / 267 76 / 155 11 / 29 2:10:32
182 Kristina Haley F 34 Dexter MI 163 / 267 77 / 155 12 / 28 2:10:49
488 Cheyenne Syvertson F 19 Minneapolis MN 164 / 267 78 / 155 4 / 7 2:10:54
3 Kayla Adams-Kalman F 21 Saint Cloud MN 166 / 267 79 / 155 18 / 31 2:11:12
321 Kait McGowan F 15 Otsego MN 167 / 267 80 / 155 5 / 7 2:11:41
217 Mariah Hoheisel F 20 Hillman MN 169 / 267 81 / 155 19 / 31 2:11:53
218 Megan Hoheisel F 19 Hillman MN 170 / 267 82 / 155 6 / 7 2:11:54
500 Jenna Thomsen F 24 Big Lake MN 172 / 267 83 / 155 20 / 31 2:12:50
395 Justine Peterson F 27 Eau Claire WI 173 / 267 84 / 155 12 / 29 2:13:23
173 Kari Gruber F 35 Pierz MN 174 / 267 85 / 155 16 / 24 2:13:47
351 Amanda Morrison F 28 Sauk Rapids MN 175 / 267 86 / 155 13 / 29 2:14:08
134 Anita Fischer F 42 St. Joseph MN 176 / 267 87 / 155 9 / 15 2:14:18
492 Michelle Templin F 51 Foley MN 179 / 267 88 / 155 4 / 6 2:14:50
501 Rebecca Thorne F 26 Glenwood MN 180 / 267 89 / 155 14 / 29 2:15:03
454 Kerri Schuler F 29 Maynard MN 181 / 267 90 / 155 15 / 29 2:15:08
521 Heather Vyskocil F 33 Wood Lake MN 182 / 267 91 / 155 13 / 28 2:15:09
305 Farrah Machula F 35 St. Cloud MN 183 / 267 92 / 155 17 / 24 2:15:33
592 Karen Ferraro F 40 Champlin MN 185 / 267 93 / 155 10 / 15 2:15:46
230 Darla Honkomp F 33 Melrose MN 187 / 267 94 / 155 14 / 28 2:15:59
569 Sai Yang F 23 Chanhassen MN 190 / 267 95 / 155 21 / 31 2:16:38
197 Kathy Harsh F 27 Zimmerman MN 191 / 267 96 / 155 16 / 29 2:16:39
112 Katie Dull F 29 Woodbury MN 192 / 267 97 / 155 17 / 29 2:16:41
282 Marilyn Laughlin F 33 Carver MN 193 / 267 98 / 155 15 / 28 2:17:12
430 Robin Roiland F 50 St Cloud MN 194 / 267 99 / 155 5 / 6 2:18:17
130 Marissa Fechhelm F 32 Eau Claire WI 195 / 267 100 / 155 16 / 28 2:18:29
397 Darla Peterson F 32 Princeton MN 196 / 267 101 / 155 17 / 28 2:18:31
460 Melissa Schyma F 31 Foley MN 197 / 267 102 / 155 18 / 28 2:19:01
448 Ginny Savaloja F 60 Crosby MN 198 / 267 103 / 155 1 / 1 2:19:08
207 Cassie Helmin F 26 Hillman MN 199 / 267 104 / 155 18 / 29 2:19:09
540 Tracey Wieber F 45 Foley MN 200 / 267 105 / 155 9 / 11 2:19:41
560 Sheila Wokson F 36 Cottage Grove MN 201 / 267 106 / 155 18 / 24 2:19:43
522 Holly Wachter F 38 Buffalo MN 203 / 267 107 / 155 19 / 24 2:20:36
27 Kendra Bergan F 24 Saint Cloud MN 205 / 267 108 / 155 22 / 31 2:20:49
393 Kayla Perlinger F 27 St. Cloud MN 206 / 267 109 / 155 19 / 29 2:21:02
114 Callie Dunbar F 21 Little Canada MN 208 / 267 110 / 155 23 / 31 2:21:17
364 Alicia Nicolai F 25 Eau Claire WI 210 / 267 111 / 155 20 / 29 2:21:36
572 Gina Zenk F 42 Clinton MN 211 / 267 112 / 155 11 / 15 2:21:44
515 Carrie Virnig F 40 Hillman MN 212 / 267 113 / 155 12 / 15 2:22:01
183 Sarah Hamilton F 21 St. Cloud MN 214 / 267 114 / 155 24 / 31 2:23:01
34 Tabitha Bode F 20 St. Cloud MN 215 / 267 115 / 155 25 / 31 2:23:15
238 Tracy Jacobs F 34 Clearwater MN 216 / 267 116 / 155 19 / 28 2:24:17
369 Cathy Nordman F 47 Saint Paul MN 217 / 267 117 / 155 10 / 11 2:24:23
243 Sarah Jewell F 42 Avon MN 218 / 267 118 / 155 13 / 15 2:26:34
132 Denise Fenwick F 55 St. Cloud MN 219 / 267 119 / 155 1 / 3 2:26:42
136 Megan Flatau F 28 Chicago IL 220 / 267 120 / 155 21 / 29 2:27:00
543 Irene Wilcox F 32 Clearwater MN 221 / 267 121 / 155 20 / 28 2:27:07
545 Margaret Wilkinson F 26 Minneapolis MN 222 / 267 122 / 155 22 / 29 2:27:20
546 Lindsey Wilkinson F 22 Marysville WA 223 / 267 123 / 155 26 / 31 2:27:20
126 Jennifer Ernster F 44 Baxter MN 225 / 267 124 / 155 14 / 15 2:28:24
548 Linda Williams F 57 Hager City WI 229 / 267 125 / 155 2 / 3 2:29:23
250 Heather Juen F 33 Littlefork MN 230 / 267 126 / 155 21 / 28 2:29:26
150 Katy Fritts F 34 Ann Arbor MI 231 / 267 127 / 155 22 / 28 2:30:05
494 Amanda Tessman F 29 Bellingham MN 233 / 267 128 / 155 23 / 29 2:31:03
586 Lora Kuismi F 46 Kimball MN 234 / 267 129 / 155 11 / 11 2:31:37
331 Sara Menning F 23 Saint Cloud MN 235 / 267 130 / 155 27 / 31 2:32:42
347 Kenzie Moehle F 23 Sauk Rapids MN 236 / 267 131 / 155 28 / 31 2:32:42
370 Nicole Nordman F 15 Saint Paul MN 237 / 267 132 / 155 7 / 7 2:33:16
13 Angie Arnold F 33 Foley MN 238 / 267 133 / 155 23 / 28 2:34:13
202 Tina Hauser F 38 Saint Augusta MN 239 / 267 134 / 155 20 / 24 2:34:39
169 Lisa Gorecki F 30 Foley MN 241 / 267 135 / 155 24 / 28 2:35:20
172 Robin Groetsch F 38 Saint Cloud MN 242 / 267 136 / 155 21 / 24 2:36:30
413 Kristie Rahm F 37 Foreston MN 243 / 267 137 / 155 22 / 24 2:36:46
7 Kara Albrecht F 51 Monticello MN 244 / 267 138 / 155 6 / 6 2:37:01
235 Katie Imhof F 30 Superior WI 245 / 267 139 / 155 25 / 28 2:37:21
271 Lynn Krueth F 32 Clear Lake MN 246 / 267 140 / 155 26 / 28 2:38:03
293 Lynn Liesmaki F 56 Backus MN 248 / 267 141 / 155 3 / 3 2:39:48
52 Jolene Buhs F 41 St. Cloud MN 250 / 267 142 / 155 15 / 15 2:40:44
385 Rebecca O'Toole F 22 Crystal ND 252 / 267 143 / 155 29 / 31 2:44:59
345 Chris Mish F 35 Stillwater MN 253 / 267 144 / 155 23 / 24 2:46:02
246 Angie Johnson F 31 St Joseph MN 255 / 267 145 / 155 27 / 28 2:48:06
68 Danielle Cohen F 27 Becker MN 256 / 267 146 / 155 24 / 29 2:48:32
85 Sara Davis F 27 Princeton MN 257 / 267 147 / 155 25 / 29 2:48:45
542 Laura Wilant F 30 Saint Cloud MN 259 / 267 148 / 155 28 / 28 2:49:31
93 Sarah Didreckson F 20 Stevens Point WI 260 / 267 149 / 155 30 / 31 2:55:09
241 Karen Janssen F 25 Saint Cloud MN 261 / 267 150 / 155 26 / 29 2:55:18
39 Emily Brady F 26 West Des Moines IA 263 / 267 151 / 155 27 / 29 3:00:34
382 Jessica Orth F 23 Grand Forks ND 264 / 267 152 / 155 31 / 31 3:01:17
381 Jennifer Orth F 28 Spring Valley MN 265 / 267 153 / 155 28 / 29 3:01:20
483 Lynsi Sundeen F 27 Ogilvie MN 266 / 267 154 / 155 29 / 29 3:08:06
475 Kristen Steiskal F 36 Becker MN 267 / 267 155 / 155 24 / 24 3:08:06
1-155
Per Page: [50] [100] [500]